CheckWX is a tool to help pilots better visualize weather data.  It is not intended as a substitute for an official pre-flight weather briefing.

14:26:36 UTC

WSSS TAF
Singapore Changi International Airport
Singapore, Singapore
TAF WSSS 261100Z 2612/2718 28005KT 9999 FEW015 SCT020 TEMPO 2700/2703 3000 TSRA FEW012CB BKN015

Apr-26@
12:00 UTC

Apr-26 @ 12:00 UTC

Apr-27@
18:00 UTC

Apr-27 @ 18:00 UTC

TAF WSSS 261100Z 2612/2718 28005KT 9999 FEW015 SCT020
Wind
  • 280° at 5 KTS
Cloud Levels
  • Few at 1,500' AGL
  • Scattered at 2,000' AGL

Apr-27@
00:00 UTC

Apr-27 @ 00:00 UTC

Apr-27@
03:00 UTC

Apr-27 @ 03:00 UTC

TEMPO 2700/2703 3000 TSRA FEW012CB BKN015

Temporary

Temporary Changes expected for less than half the time period

Conditions
Thunderstorm, Rain
Cloud Levels
  • Few at 1,200' AGL
  • Broken at 1,500' AGL